.
WxDataArchive / Data Records for 2015-06-17
2015-06-16 June 2015 2015-06-18

Data Records for Wednesday, 17 June 2015

Time	Temp	Chill	HIndex	Humid	Dewpt	 Wind 	HiWind	WindDir	Rain 	Barom
-----	----	-----	------	-----	-----	------	------	-------	-----	-----
00:00	68.3	68.3	68.3	72	58.9	0	0	---	0.00	30.062 
00:05	68.1	68.1	68.1	72	58.7	0	0	---	0.00	30.062 
00:10	67.9	67.9	67.9	72	58.5	0	0	---	0.00	30.062 
00:15	67.8	67.8	67.8	73	58.8	0	0	---	0.00	30.058 
00:20	67.6	67.6	67.6	73	58.6	0	0	---	0.00	30.058 
00:25	67.4	67.4	67.4	73	58.4	0	0	---	0.00	30.058 
00:30	67.3	67.3	67.3	74	58.7	0	0	---	0.00	30.057 
00:35	67.1	67.1	67.1	75	58.9	0	0	---	0.00	30.057 
00:40	66.9	66.9	66.9	75	58.7	0	0	---	0.00	30.057 
00:45	66.8	66.8	66.8	75	58.6	0	0	---	0.00	30.056 
00:50	66.6	66.6	66.6	76	58.8	0	0	---	0.00	30.056 
00:55	66.6	66.6	66.6	76	58.8	0	0	---	0.00	30.056 
01:00	66.4	66.4	66.4	77	59.0	0	0	---	0.00	30.052 
01:05	66.3	66.3	66.3	77	58.9	0	0	---	0.00	30.052 
01:10	66.1	66.1	66.1	77	58.7	0	0	---	0.00	30.052 
01:15	66.0	66.0	66.0	77	58.6	0	0	---	0.00	30.049 
01:20	65.8	65.8	65.8	78	58.7	0	0	---	0.00	30.049 
01:25	65.6	65.6	65.6	78	58.5	0	0	---	0.00	30.049 
01:30	65.5	65.5	65.5	78	58.5	0	0	---	0.00	30.043 
01:35	65.3	65.3	65.3	79	58.6	0	0	---	0.00	30.043 
01:40	65.2	65.2	65.2	80	58.9	0	0	---	0.00	30.043 
01:45	65.0	65.0	65.0	80	58.7	0	0	---	0.00	30.044 
01:50	65.0	65.0	65.0	80	58.7	0	0	---	0.00	30.044 
01:55	64.8	64.8	64.8	81	58.8	0	0	---	0.00	30.044 
02:00	64.8	64.8	64.8	81	58.8	0	0	---	0.00	30.043 
02:05	64.7	64.7	64.7	81	58.7	0	0	---	0.00	30.043 
02:10	64.7	64.7	64.7	81	58.7	0	0	---	0.00	30.043 
02:15	64.5	64.5	64.5	81	58.5	0	0	---	0.00	30.038 
02:20	64.3	64.3	64.3	81	58.3	0	0	---	0.00	30.038 
02:25	64.3	64.3	64.3	81	58.3	0	0	---	0.00	30.038 
02:30	64.3	64.3	64.3	82	58.7	0	0	---	0.00	30.038 
02:35	64.2	64.2	64.2	82	58.6	0	0	---	0.00	30.038 
02:40	64.2	64.2	64.2	82	58.6	0	0	---	0.00	30.038 
02:45	64.2	64.2	64.2	83	58.9	0	0	---	0.00	30.036 
02:50	64.3	64.3	64.3	83	59.0	0	0	---	0.00	30.036 
02:55	64.3	64.3	64.3	84	59.4	0	0	---	0.00	30.036 
03:00	64.3	64.3	64.3	84	59.4	0	0	---	0.00	30.032 
03:05	64.5	64.5	64.5	83	59.2	0	0	---	0.00	30.032 
03:10	64.5	64.5	64.5	83	59.2	0	0	---	0.00	30.032 
03:15	64.7	64.7	64.7	83	59.4	0	0	---	0.00	30.030 
03:20	64.8	64.8	64.8	83	59.5	0	0	---	0.00	30.030 
03:25	65.0	65.0	65.0	83	59.7	0	0	---	0.00	30.030 
03:30	65.2	65.2	65.2	82	59.6	0	0	---	0.00	30.020 
03:35	65.3	65.3	65.3	82	59.7	0	0	---	0.00	30.020 
03:40	65.5	65.5	65.5	82	59.9	0	0	---	0.00	30.020 
03:45	65.6	65.6	65.6	82	59.9	0	0	---	0.00	30.019 
03:50	65.8	65.8	65.8	82	60.1	0	0	---	0.00	30.019 
03:55	65.8	65.8	65.8	82	60.1	0	0	---	0.00	30.019 
04:00	66.0	66.0	66.0	82	60.3	0	0	---	0.00	30.015 
04:05	66.0	66.0	66.0	83	60.7	0	0	---	0.00	30.015 
04:10	66.1	66.1	66.1	83	60.8	0	0	---	0.00	30.015 
04:15	66.3	66.3	66.3	83	61.0	0	0	---	0.00	30.015 
04:20	66.3	66.3	66.3	84	61.3	0	2	90	0.00	30.015 
04:25	66.4	66.4	66.4	84	61.4	0	2	90	0.00	30.015 
04:30	66.4	66.4	66.4	84	61.4	0	1	90	0.00	30.016 
04:35	66.4	66.4	66.4	85	61.7	0	3	90	0.00	30.016 
04:40	66.4	66.4	66.4	85	61.7	0	2	90	0.00	30.016 
04:45	66.4	66.4	66.4	86	62.1	0	2	90	0.00	30.015 
04:50	66.4	66.4	66.4	86	62.1	0	2	90	0.00	30.015 
04:55	66.6	66.6	66.6	87	62.6	0	3	90	0.00	30.015 
05:00	66.6	66.6	66.6	87	62.6	0	3	90	0.00	30.012 
05:05	66.4	66.4	66.4	88	62.7	0	4	90	0.00	30.012 
05:10	66.4	66.4	66.4	88	62.7	0	2	90	0.00	30.012 
05:15	66.4	66.4	66.4	88	62.7	0	3	90	0.00	30.012 
05:20	66.4	66.4	66.4	89	63.1	1	3	90	0.00	30.012 
05:25	66.3	66.3	66.3	89	63.0	1	4	90	0.00	30.012 
05:30	66.3	66.3	66.3	89	63.0	1	4	90	0.00	30.011 
05:35	66.3	66.3	66.3	90	63.3	1	6	90	0.00	30.011 
05:40	66.3	66.3	66.3	90	63.3	1	6	68	0.00	30.011 
05:45	66.1	66.1	66.1	90	63.1	1	4	68	0.00	30.007 
05:50	66.1	66.1	66.1	91	63.4	1	4	68	0.00	30.007 
05:55	66.0	66.0	66.0	91	63.3	1	3	68	0.00	30.007 
06:00	66.0	66.0	66.0	91	63.3	1	3	68	0.00	30.008 
06:05	66.0	66.0	66.0	91	63.3	1	3	68	0.00	30.008 
06:10	66.0	66.0	66.0	92	63.6	1	2	68	0.00	30.008 
06:15	65.8	65.8	65.8	92	63.4	1	3	68	0.00	30.006 
06:20	65.8	65.8	65.8	92	63.4	0	2	68	0.00	30.006 
06:25	65.8	65.8	65.8	92	63.4	0	2	68	0.00	30.006 
06:30	65.8	65.8	65.8	92	63.4	0	2	68	0.00	30.010 
06:35	66.0	66.0	66.0	92	63.6	0	2	68	0.00	30.010 
06:40	66.0	66.0	66.0	92	63.6	0	2	68	0.00	30.010 
06:45	66.0	66.0	66.0	92	63.6	0	1	68	0.00	30.013 
06:50	66.0	66.0	66.0	92	63.6	0	1	68	0.00	30.013 
06:55	66.0	66.0	66.0	93	63.9	0	2	68	0.00	30.013 
07:00	66.1	66.1	66.1	93	64.0	0	1	68	0.00	30.011 
07:05	66.1	66.1	66.1	93	64.0	0	1	68	0.00	30.011 
07:10	66.1	66.1	66.1	93	64.0	0	2	68	0.00	30.011 
07:15	66.3	66.3	66.3	93	64.2	0	2	68	0.00	30.005 
07:20	66.3	66.3	66.3	93	64.2	0	2	68	0.00	30.005 
07:25	66.4	66.4	66.4	93	64.3	0	1	68	0.00	30.005 
07:30	66.4	66.4	66.4	93	64.3	0	2	68	0.00	30.006 
07:35	66.6	66.6	66.6	93	64.5	1	3	68	0.00	30.006 
07:40	66.8	66.8	66.8	94	65.0	0	2	68	0.00	30.006 
07:45	66.8	66.8	66.8	94	65.0	0	1	68	0.01	30.011 
07:50	66.9	66.9	66.9	94	65.1	0	0	---	0.00	30.011 
07:55	66.9	66.9	66.9	94	65.1	0	0	---	0.00	30.011 
08:00	67.1	67.1	67.1	94	65.3	0	2	68	0.00	30.012 
08:05	67.1	67.1	67.1	94	65.3	0	2	68	0.00	30.012 
08:10	67.3	67.3	67.3	94	65.5	0	1	68	0.00	30.012 
08:15	67.3	67.3	67.3	94	65.5	0	2	68	0.00	30.013 
08:20	67.3	67.3	67.3	94	65.5	0	2	68	0.00	30.013 
08:25	67.4	67.4	67.4	94	65.6	0	2	68	0.00	30.013 
08:30	67.4	67.4	67.4	94	65.6	0	3	68	0.00	30.012 
08:35	67.6	67.6	67.6	94	65.8	1	4	68	0.00	30.012 
08:40	67.6	67.6	67.6	94	65.8	1	3	68	0.00	30.012 
08:45	67.8	67.8	67.8	94	66.0	1	3	68	0.00	30.003 
08:50	67.9	67.9	67.9	94	66.1	1	2	68	0.00	30.003 
08:55	67.9	67.9	67.9	94	66.1	0	3	68	0.00	30.003 
09:00	67.9	67.9	67.9	94	66.1	1	4	68	0.00	30.012 
09:05	67.9	67.9	67.9	94	66.1	1	3	68	0.00	30.012 
09:10	67.9	67.9	67.9	94	66.1	1	4	68	0.00	30.012 
09:15	67.9	67.9	67.9	94	66.1	0	2	68	0.00	30.016 
09:20	68.1	68.1	68.1	94	66.3	0	2	68	0.00	30.016 
09:25	67.9	67.9	67.9	94	66.1	1	3	68	0.00	30.016 
09:30	68.1	68.1	68.1	94	66.3	0	3	68	0.00	30.010 
09:35	68.1	68.1	68.1	94	66.3	0	3	45	0.00	30.010 
09:40	68.3	68.3	68.3	94	66.5	0	3	45	0.00	30.010 
09:45	68.3	68.3	68.3	94	66.5	1	4	68	0.01	30.011 
09:50	68.4	68.4	68.4	94	66.6	1	4	112	0.00	30.011 
09:55	68.3	68.3	68.3	94	66.5	1	6	112	0.00	30.011 
10:00	68.1	68.1	68.1	94	66.3	0	3	45	0.00	30.006 
10:05	68.1	68.1	68.1	94	66.3	0	2	68	0.00	30.006 
10:10	68.3	68.3	68.3	94	66.5	0	1	90	0.00	30.006 
10:15	68.3	68.3	68.3	94	66.5	0	2	90	0.00	30.003 
10:20	68.3	68.3	68.3	94	66.5	0	2	135	0.00	30.003 
10:25	68.4	68.4	68.4	94	66.6	0	1	135	0.00	30.003 
10:30	68.4	68.4	68.4	94	66.6	0	2	135	0.00	30.004 
10:35	68.4	68.4	68.4	94	66.6	1	3	90	0.00	30.004 
10:40	68.4	68.4	68.4	94	66.6	0	2	135	0.00	30.004 
10:45	68.3	68.3	68.3	94	66.5	0	2	112	0.01	30.012 
10:50	68.1	68.1	68.1	94	66.3	0	2	112	0.00	30.012 
10:55	68.1	68.1	68.1	94	66.3	0	1	112	0.00	30.012 
11:00	67.9	67.9	67.9	94	66.1	0	1	112	0.00	30.018 
11:05	67.9	67.9	67.9	94	66.1	0	2	112	0.00	30.018 
11:10	67.8	67.8	67.8	94	66.0	0	4	112	0.02	30.018 
11:15	67.6	67.6	67.6	94	65.8	1	3	112	0.01	30.014 
11:20	67.8	67.8	67.8	94	66.0	0	1	112	0.00	30.014 
11:25	67.8	67.8	67.8	94	66.0	1	3	112	0.00	30.014 
11:30	67.8	67.8	67.8	94	66.0	0	3	112	0.00	30.014 
11:35	67.9	67.9	67.9	94	66.1	0	2	135	0.00	30.014 
11:40	67.9	67.9	67.9	94	66.1	0	2	135	0.00	30.014 
11:45	68.3	68.3	68.3	94	66.5	0	3	135	0.00	30.006 
11:50	68.4	68.4	68.4	94	66.6	1	4	112	0.00	30.006 
11:55	68.6	68.6	68.6	94	66.8	1	3	112	0.00	30.006 
12:00	68.6	68.6	68.6	94	66.8	1	4	90	0.00	30.004 
12:05	68.8	68.8	68.8	94	67.0	1	3	90	0.00	30.004 
12:10	68.9	68.9	68.9	93	66.8	0	3	90	0.00	30.004 
12:15	68.9	68.9	68.9	93	66.8	1	4	90	0.00	30.011 
12:20	68.9	68.9	68.9	92	66.5	0	2	112	0.00	30.011 
12:25	69.1	69.1	69.1	92	66.7	0	1	112	0.00	30.011 
12:30	69.1	69.1	69.1	92	66.7	1	4	90	0.00	30.007 
12:35	69.3	69.3	69.3	92	66.9	0	1	112	0.00	30.007 
12:40	69.3	69.3	69.3	91	66.6	1	5	112	0.00	30.007 
12:45	69.4	69.4	69.4	91	66.7	1	4	112	0.00	30.011 
12:50	69.6	69.6	69.6	91	66.8	0	3	112	0.00	30.011 
12:55	69.6	69.6	69.6	90	66.5	1	4	112	0.00	30.011 
13:00	70.1	70.1	70.1	90	67.0	0	2	112	0.00	30.006 
13:05	70.3	70.3	70.3	89	66.9	0	2	112	0.00	30.006 
13:10	70.4	70.4	70.4	88	66.7	0	2	112	0.00	30.006 
13:15	70.6	70.6	70.6	88	66.9	0	4	112	0.00	30.006 
13:20	70.8	70.8	70.8	87	66.7	0	2	112	0.00	30.006 
13:25	70.9	70.9	70.9	87	66.8	0	2	112	0.00	30.006 
13:30	71.5	71.5	71.5	88	67.7	0	1	112	0.00	30.005 
13:35	71.6	71.6	71.6	87	67.5	0	2	112	0.00	30.005 
13:40	71.8	71.8	71.8	87	67.7	0	2	112	0.00	30.005 
13:45	72.0	72.0	72.0	86	67.6	0	2	112	0.00	30.004 
13:50	72.1	72.1	72.1	84	67.0	1	4	112	0.00	30.004 
13:55	72.1	72.1	72.1	84	67.0	1	4	112	0.00	30.004 
14:00	72.3	72.3	72.3	84	67.2	1	2	112	0.00	29.993 
14:05	72.7	72.7	72.7	83	67.2	2	7	68	0.00	29.993 
14:10	73.2	73.2	73.2	83	67.7	1	4	68	0.00	29.993 
14:15	73.3	73.3	73.3	82	67.5	1	4	68	0.00	29.991 
14:20	73.5	73.5	73.5	82	67.7	1	3	68	0.00	29.991 
14:25	73.5	73.5	73.5	80	66.9	1	4	68	0.00	29.991 
14:30	73.5	73.5	73.5	80	66.9	0	3	45	0.00	29.986 
14:35	73.9	73.9	73.9	80	67.3	0	1	158	0.00	29.986 
14:40	74.2	74.2	74.2	80	67.6	1	3	135	0.00	29.986 
14:45	74.4	74.4	74.4	78	67.1	1	5	112	0.00	29.980 
14:50	74.0	74.0	74.0	78	66.7	2	6	90	0.00	29.980 
14:55	73.7	73.7	73.7	80	67.1	2	4	90	0.00	29.980 
15:00	73.5	73.5	73.5	81	67.3	1	3	90	0.00	29.973 
15:05	73.5	73.5	73.5	81	67.3	2	7	90	0.00	29.973 
15:10	73.7	73.7	73.7	81	67.5	1	3	90	0.00	29.973 
15:15	74.0	74.0	74.0	80	67.4	0	3	90	0.00	29.970 
15:20	74.2	74.2	74.2	79	67.3	1	4	90	0.00	29.970 
15:25	74.0	74.0	74.0	79	67.1	0	4	90	0.00	29.970 
15:30	73.9	73.9	73.9	80	67.3	0	1	90	0.00	29.970 
15:35	73.9	73.9	73.9	80	67.3	0	2	90	0.00	29.970 
15:40	73.7	73.7	73.7	81	67.5	0	2	90	0.00	29.970 
15:45	73.7	73.7	73.7	81	67.5	1	3	90	0.00	29.956 
15:50	73.9	73.9	73.9	80	67.3	1	3	90	0.00	29.956 
15:55	74.0	74.0	74.0	81	67.8	0	2	90	0.00	29.956 
16:00	74.2	74.2	74.2	79	67.3	0	2	90	0.00	29.954 
16:05	74.2	74.2	74.2	79	67.3	1	3	90	0.00	29.954 
16:10	74.0	74.0	74.0	80	67.4	1	3	90	0.00	29.954 
16:15	73.7	73.7	73.7	81	67.5	1	4	90	0.00	29.951 
16:20	73.5	73.5	73.5	82	67.7	1	2	90	0.00	29.951 
16:25	73.5	73.5	73.5	82	67.7	0	1	90	0.00	29.951 
16:30	73.5	73.5	73.5	82	67.7	0	2	90	0.00	29.943 
16:35	73.5	73.5	73.5	83	68.0	0	3	90	0.00	29.943 
16:40	73.3	73.3	73.3	82	67.5	1	4	90	0.00	29.943 
16:45	73.3	73.3	73.3	82	67.5	0	2	90	0.00	29.943 
16:50	73.3	73.3	73.3	82	67.5	0	1	90	0.00	29.943 
16:55	73.2	73.2	73.2	82	67.4	0	2	90	0.00	29.943 
17:00	73.2	73.2	73.2	83	67.7	0	1	90	0.00	29.942 
17:05	73.2	73.2	73.2	83	67.7	0	1	90	0.00	29.942 
17:10	73.0	73.0	73.0	83	67.5	0	1	90	0.00	29.942 
17:15	73.0	73.0	73.0	83	67.5	0	1	90	0.00	29.947 
17:20	73.0	73.0	73.0	84	67.9	0	1	90	0.00	29.947 
17:25	73.0	73.0	73.0	85	68.2	0	1	90	0.00	29.947 
17:30	72.8	72.8	72.8	85	68.0	0	1	90	0.00	29.941 
17:35	72.8	72.8	72.8	86	68.4	0	1	90	0.00	29.941 
17:40	72.7	72.7	72.7	87	68.6	0	0	---	0.01	29.941 
17:45	72.7	72.7	72.7	87	68.6	0	1	90	0.00	29.940 
17:50	72.7	72.7	72.7	88	68.9	0	0	---	0.00	29.940 
17:55	72.5	72.5	72.5	88	68.7	0	1	90	0.00	29.940 
18:00	72.3	72.3	72.3	88	68.5	0	1	90	0.00	29.940 
18:05	72.1	72.1	72.1	88	68.3	0	1	90	0.00	29.940 
18:10	72.1	72.1	72.1	89	68.7	0	0	---	0.00	29.940 
18:15	72.0	72.0	72.0	89	68.6	0	1	90	0.00	29.936 
18:20	72.0	72.0	72.0	89	68.6	0	1	90	0.00	29.936 
18:25	71.8	71.8	71.8	90	68.7	0	1	90	0.00	29.936 
18:30	71.8	71.8	71.8	90	68.7	0	0	---	0.00	29.936 
18:35	71.8	71.8	71.8	90	68.7	0	1	90	0.00	29.936 
18:40	71.6	71.6	71.6	91	68.8	0	0	---	0.00	29.936 
18:45	71.6	71.6	71.6	91	68.8	0	1	90	0.00	29.936 
18:50	71.5	71.5	71.5	91	68.7	0	1	90	0.00	29.936 
18:55	71.3	71.3	71.3	91	68.5	0	1	90	0.00	29.936 
19:00	71.3	71.3	71.3	91	68.5	0	0	---	0.01	29.935 
19:05	71.3	71.3	71.3	92	68.8	0	1	90	0.02	29.935 
19:10	71.1	71.1	71.1	92	68.7	0	1	90	0.00	29.935 
19:15	71.1	71.1	71.1	92	68.7	0	0	---	0.00	29.937 
19:20	70.9	70.9	70.9	92	68.5	0	0	---	0.00	29.937 
19:25	70.9	70.9	70.9	92	68.5	0	0	---	0.00	29.937 
19:30	70.9	70.9	70.9	92	68.5	0	0	---	0.01	29.938 
19:35	70.9	70.9	70.9	93	68.8	0	0	---	0.00	29.938 
19:40	70.9	70.9	70.9	93	68.8	0	0	---	0.00	29.938 
19:45	70.9	70.9	70.9	93	68.8	0	0	---	0.00	29.931 
19:50	70.9	70.9	70.9	93	68.8	0	0	---	0.00	29.931 
19:55	70.9	70.9	70.9	93	68.8	0	0	---	0.00	29.931 
20:00	70.9	70.9	70.9	93	68.8	0	0	---	0.00	29.931 
20:05	70.9	70.9	70.9	93	68.8	0	0	---	0.00	29.931 
20:10	70.9	70.9	70.9	93	68.8	0	0	---	0.00	29.931 
20:15	70.9	70.9	70.9	94	69.1	0	0	---	0.00	29.937 
20:20	70.9	70.9	70.9	94	69.1	0	0	---	0.00	29.937 
20:25	70.9	70.9	70.9	94	69.1	0	0	---	0.00	29.937 
20:30	70.9	70.9	70.9	94	69.1	0	0	---	0.00	29.936 
20:35	70.9	70.9	70.9	94	69.1	0	0	---	0.00	29.936 
20:40	70.9	70.9	70.9	94	69.1	0	0	---	0.01	29.936 
20:45	70.9	70.9	70.9	94	69.1	0	0	---	0.00	29.931 
20:50	70.9	70.9	70.9	94	69.1	0	0	---	0.00	29.931 
20:55	70.9	70.9	70.9	94	69.1	0	0	---	0.00	29.931 
21:00	70.9	70.9	70.9	94	69.1	0	0	---	0.00	29.928 
21:05	70.9	70.9	70.9	94	69.1	0	0	---	0.00	29.928 
21:10	70.9	70.9	70.9	94	69.1	0	1	90	0.00	29.928 
21:15	70.9	70.9	70.9	94	69.1	0	0	---	0.00	29.924 
21:20	70.9	70.9	70.9	94	69.1	0	0	---	0.00	29.924 
21:25	70.9	70.9	70.9	95	69.4	0	0	---	0.00	29.924 
21:30	70.9	70.9	70.9	95	69.4	0	0	---	0.00	29.923 
21:35	70.8	70.8	70.8	95	69.3	0	0	---	0.00	29.923 
21:40	70.8	70.8	70.8	95	69.3	0	0	---	0.00	29.923 
21:45	70.6	70.6	70.6	95	69.1	0	0	---	0.00	29.916 
21:50	70.6	70.6	70.6	95	69.1	0	0	---	0.00	29.916 
21:55	70.4	70.4	70.4	95	68.9	0	0	---	0.00	29.916 
22:00	70.4	70.4	70.4	95	68.9	0	0	---	0.00	29.921 
22:05	70.4	70.4	70.4	95	68.9	0	0	---	0.00	29.921 
22:10	70.6	70.6	70.6	95	69.1	0	0	---	0.00	29.921 
22:15	70.4	70.4	70.4	95	68.9	0	0	---	0.00	29.924 
22:20	70.4	70.4	70.4	95	68.9	0	0	---	0.00	29.924 
22:25	70.6	70.6	70.6	95	69.1	0	0	---	0.00	29.924 
22:30	70.6	70.6	70.6	95	69.1	0	0	---	0.00	29.928 
22:35	70.6	70.6	70.6	95	69.1	0	0	---	0.00	29.928 
22:40	70.6	70.6	70.6	95	69.1	0	0	---	0.00	29.928 
22:45	70.6	70.6	70.6	95	69.1	0	0	---	0.00	29.934 
22:50	70.6	70.6	70.6	95	69.1	0	0	---	0.00	29.934 
22:55	70.6	70.6	70.6	95	69.1	0	0	---	0.00	29.934 
23:00	70.4	70.4	70.4	95	68.9	0	0	---	0.00	29.928 
23:05	70.4	70.4	70.4	95	68.9	0	0	---	0.00	29.928 
23:10	70.4	70.4	70.4	95	68.9	0	0	---	0.00	29.928 
23:15	70.4	70.4	70.4	95	68.9	0	0	---	0.00	29.927 
23:20	70.3	70.3	70.3	95	68.8	0	0	---	0.00	29.927 
23:25	70.3	70.3	70.3	95	68.8	0	0	---	0.00	29.927 
23:30	70.4	70.4	70.4	95	68.9	0	0	---	0.00	29.926 
23:35	70.3	70.3	70.3	95	68.8	0	0	---	0.00	29.926 
23:40	70.3	70.3	70.3	95	68.8	0	0	---	0.00	29.926 
23:45	70.3	70.3	70.3	95	68.8	0	0	---	0.00	29.922 
23:50	70.1	70.1	70.1	95	68.6	0	0	---	0.00	29.922 
23:55	70.1	70.1	70.1	96	68.9	0	0	---	0.00	29.922 

CoCoRaHS
IN-AL-39
A2 Web Hosting
Creative Commons License
GoDaddy
search engine by freefind advanced

loaded 2018-11-13 23:20:41 • last modified 2010-11-18 10:43:29
Privacy PolicyDisclaimer
• wx.awcolley.com is powered by PmWiki v.2002016 •
• all content (unless otherwise noted) © 2018 A W Colley